sensor_id;sensor_type;location;lat;lon;timestamp;P1;durP1;ratioP1;P2;durP2;ratioP2
35636;SDS011;21758;43.542;1.462;2022-07-23T00:00:51;4.47;;;1.92;;
35636;SDS011;21758;43.542;1.462;2022-07-23T00:03:17;8.52;;;2.38;;
35636;SDS011;21758;43.542;1.462;2022-07-23T00:05:43;7.00;;;2.22;;
35636;SDS011;21758;43.542;1.462;2022-07-23T00:08:08;5.63;;;1.88;;
35636;SDS011;21758;43.542;1.462;2022-07-23T00:10:34;5.35;;;2.35;;
35636;SDS011;21758;43.542;1.462;2022-07-23T00:13:00;7.65;;;2.55;;
35636;SDS011;21758;43.542;1.462;2022-07-23T00:15:26;8.82;;;2.47;;
35636;SDS011;21758;43.542;1.462;2022-07-23T00:17:51;6.65;;;2.13;;
35636;SDS011;21758;43.542;1.462;2022-07-23T00:20:17;9.65;;;2.85;;
35636;SDS011;21758;43.542;1.462;2022-07-23T00:22:50;7.53;;;2.40;;
35636;SDS011;21758;43.542;1.462;2022-07-23T00:25:18;8.70;;;2.20;;
35636;SDS011;21758;43.542;1.462;2022-07-23T00:27:44;6.43;;;2.35;;
35636;SDS011;21758;43.542;1.462;2022-07-23T00:30:10;6.15;;;2.10;;
35636;SDS011;21758;43.542;1.462;2022-07-23T00:32:50;8.02;;;2.17;;
35636;SDS011;21758;43.542;1.462;2022-07-23T00:35:21;9.13;;;2.57;;
35636;SDS011;21758;43.542;1.462;2022-07-23T00:37:47;23.30;;;4.07;;
35636;SDS011;21758;43.542;1.462;2022-07-23T00:40:13;14.00;;;3.53;;
35636;SDS011;21758;43.542;1.462;2022-07-23T00:42:39;14.15;;;3.28;;
35636;SDS011;21758;43.542;1.462;2022-07-23T00:45:05;14.65;;;3.47;;
35636;SDS011;21758;43.542;1.462;2022-07-23T00:47:32;12.02;;;3.17;;
35636;SDS011;21758;43.542;1.462;2022-07-23T00:49:57;8.13;;;2.35;;
35636;SDS011;21758;43.542;1.462;2022-07-23T00:52:23;8.23;;;2.80;;
35636;SDS011;21758;43.542;1.462;2022-07-23T00:54:49;7.13;;;2.33;;
35636;SDS011;21758;43.542;1.462;2022-07-23T00:57:16;6.05;;;2.42;;
35636;SDS011;21758;43.542;1.462;2022-07-23T00:59:41;6.32;;;2.63;;
35636;SDS011;21758;43.542;1.462;2022-07-23T01:02:07;9.18;;;3.50;;
35636;SDS011;21758;43.542;1.462;2022-07-23T01:04:33;10.25;;;2.85;;
35636;SDS011;21758;43.542;1.462;2022-07-23T01:06:59;10.35;;;3.03;;
35636;SDS011;21758;43.542;1.462;2022-07-23T01:09:25;7.55;;;3.13;;
35636;SDS011;21758;43.542;1.462;2022-07-23T01:11:52;6.35;;;3.28;;
35636;SDS011;21758;43.542;1.462;2022-07-23T01:14:20;9.23;;;2.85;;
35636;SDS011;21758;43.542;1.462;2022-07-23T01:16:46;7.50;;;2.95;;
35636;SDS011;21758;43.542;1.462;2022-07-23T01:19:13;12.40;;;3.53;;
35636;SDS011;21758;43.542;1.462;2022-07-23T01:21:40;6.97;;;2.72;;
35636;SDS011;21758;43.542;1.462;2022-07-23T01:24:11;11.15;;;3.17;;
35636;SDS011;21758;43.542;1.462;2022-07-23T01:26:38;9.02;;;3.17;;
35636;SDS011;21758;43.542;1.462;2022-07-23T01:29:04;7.53;;;2.70;;
35636;SDS011;21758;43.542;1.462;2022-07-23T01:31:30;10.52;;;3.10;;
35636;SDS011;21758;43.542;1.462;2022-07-23T01:33:56;7.32;;;3.17;;
35636;SDS011;21758;43.542;1.462;2022-07-23T01:36:22;7.75;;;3.17;;
35636;SDS011;21758;43.542;1.462;2022-07-23T01:38:49;12.43;;;3.17;;
35636;SDS011;21758;43.542;1.462;2022-07-23T01:41:15;9.82;;;3.00;;
35636;SDS011;21758;43.542;1.462;2022-07-23T01:43:41;13.38;;;3.22;;
35636;SDS011;21758;43.542;1.462;2022-07-23T01:46:07;16.45;;;3.05;;
35636;SDS011;21758;43.542;1.462;2022-07-23T01:48:33;6.75;;;2.72;;
35636;SDS011;21758;43.542;1.462;2022-07-23T01:50:59;8.25;;;3.10;;
35636;SDS011;21758;43.542;1.462;2022-07-23T01:53:24;7.93;;;3.10;;
35636;SDS011;21758;43.542;1.462;2022-07-23T01:55:50;10.93;;;3.10;;
35636;SDS011;21758;43.542;1.462;2022-07-23T01:58:15;6.60;;;2.67;;
35636;SDS011;21758;43.542;1.462;2022-07-23T02:00:41;13.27;;;3.33;;
35636;SDS011;21758;43.542;1.462;2022-07-23T02:03:07;8.00;;;2.90;;
35636;SDS011;21758;43.542;1.462;2022-07-23T02:05:32;8.15;;;3.10;;
35636;SDS011;21758;43.542;1.462;2022-07-23T02:07:58;7.45;;;3.00;;
35636;SDS011;21758;43.542;1.462;2022-07-23T02:10:25;9.95;;;2.88;;
35636;SDS011;21758;43.542;1.462;2022-07-23T02:12:52;7.65;;;3.17;;
35636;SDS011;21758;43.542;1.462;2022-07-23T02:15:18;10.15;;;2.97;;
35636;SDS011;21758;43.542;1.462;2022-07-23T02:17:44;10.68;;;3.13;;
35636;SDS011;21758;43.542;1.462;2022-07-23T02:20:10;7.35;;;2.63;;
35636;SDS011;21758;43.542;1.462;2022-07-23T02:22:36;11.27;;;3.28;;
35636;SDS011;21758;43.542;1.462;2022-07-23T02:25:03;14.05;;;3.65;;
35636;SDS011;21758;43.542;1.462;2022-07-23T02:27:29;9.25;;;3.13;;
35636;SDS011;21758;43.542;1.462;2022-07-23T02:29:55;9.68;;;3.38;;
35636;SDS011;21758;43.542;1.462;2022-07-23T02:32:22;9.23;;;3.03;;
35636;SDS011;21758;43.542;1.462;2022-07-23T02:34:48;11.07;;;3.00;;
35636;SDS011;21758;43.542;1.462;2022-07-23T02:37:14;8.23;;;3.10;;
35636;SDS011;21758;43.542;1.462;2022-07-23T02:39:40;11.13;;;3.08;;
35636;SDS011;21758;43.542;1.462;2022-07-23T02:42:05;8.93;;;2.97;;
35636;SDS011;21758;43.542;1.462;2022-07-23T02:44:31;12.50;;;3.35;;
35636;SDS011;21758;43.542;1.462;2022-07-23T02:46:57;8.35;;;2.47;;
35636;SDS011;21758;43.542;1.462;2022-07-23T02:49:22;7.53;;;2.50;;
35636;SDS011;21758;43.542;1.462;2022-07-23T02:51:48;10.48;;;3.03;;
35636;SDS011;21758;43.542;1.462;2022-07-23T02:54:14;7.72;;;3.10;;
35636;SDS011;21758;43.542;1.462;2022-07-23T02:56:39;8.88;;;3.33;;
35636;SDS011;21758;43.542;1.462;2022-07-23T02:59:05;9.02;;;2.70;;
35636;SDS011;21758;43.542;1.462;2022-07-23T03:01:30;9.60;;;2.80;;
35636;SDS011;21758;43.542;1.462;2022-07-23T03:03:56;8.00;;;2.95;;
35636;SDS011;21758;43.542;1.462;2022-07-23T03:06:22;13.20;;;3.55;;
35636;SDS011;21758;43.542;1.462;2022-07-23T03:08:48;9.20;;;3.40;;
35636;SDS011;21758;43.542;1.462;2022-07-23T03:11:14;8.20;;;3.15;;
35636;SDS011;21758;43.542;1.462;2022-07-23T03:13:40;14.68;;;3.67;;
35636;SDS011;21758;43.542;1.462;2022-07-23T03:16:06;8.48;;;2.97;;
35636;SDS011;21758;43.542;1.462;2022-07-23T03:18:32;7.88;;;3.08;;
35636;SDS011;21758;43.542;1.462;2022-07-23T03:20:58;7.88;;;2.97;;
35636;SDS011;21758;43.542;1.462;2022-07-23T03:23:24;10.45;;;3.00;;
35636;SDS011;21758;43.542;1.462;2022-07-23T03:25:50;12.57;;;3.08;;
35636;SDS011;21758;43.542;1.462;2022-07-23T03:28:16;5.78;;;3.13;;
35636;SDS011;21758;43.542;1.462;2022-07-23T03:30:43;6.85;;;2.40;;
35636;SDS011;21758;43.542;1.462;2022-07-23T03:33:13;10.82;;;2.88;;
35636;SDS011;21758;43.542;1.462;2022-07-23T03:35:41;8.10;;;3.20;;
35636;SDS011;21758;43.542;1.462;2022-07-23T03:38:10;6.88;;;3.20;;
35636;SDS011;21758;43.542;1.462;2022-07-23T03:40:36;11.20;;;3.22;;
35636;SDS011;21758;43.542;1.462;2022-07-23T03:43:02;13.48;;;3.50;;
35636;SDS011;21758;43.542;1.462;2022-07-23T03:45:28;8.75;;;3.00;;
35636;SDS011;21758;43.542;1.462;2022-07-23T03:47:53;6.82;;;2.80;;
35636;SDS011;21758;43.542;1.462;2022-07-23T03:50:19;11.93;;;3.60;;
35636;SDS011;21758;43.542;1.462;2022-07-23T03:52:45;7.13;;;2.85;;
35636;SDS011;21758;43.542;1.462;2022-07-23T03:55:11;12.45;;;3.22;;
35636;SDS011;21758;43.542;1.462;2022-07-23T03:57:37;12.88;;;3.00;;
35636;SDS011;21758;43.542;1.462;2022-07-23T04:00:03;11.07;;;3.80;;
35636;SDS011;21758;43.542;1.462;2022-07-23T04:02:31;6.78;;;2.88;;
35636;SDS011;21758;43.542;1.462;2022-07-23T04:04:57;13.65;;;3.72;;
35636;SDS011;21758;43.542;1.462;2022-07-23T04:07:24;10.43;;;3.10;;
35636;SDS011;21758;43.542;1.462;2022-07-23T04:09:50;7.70;;;3.92;;
35636;SDS011;21758;43.542;1.462;2022-07-23T04:12:15;12.77;;;4.28;;
35636;SDS011;21758;43.542;1.462;2022-07-23T04:14:41;8.40;;;3.05;;
35636;SDS011;21758;43.542;1.462;2022-07-23T04:17:07;12.55;;;3.78;;
35636;SDS011;21758;43.542;1.462;2022-07-23T04:19:32;10.05;;;3.88;;
35636;SDS011;21758;43.542;1.462;2022-07-23T04:21:58;7.07;;;3.40;;
35636;SDS011;21758;43.542;1.462;2022-07-23T04:24:24;10.68;;;3.35;;
35636;SDS011;21758;43.542;1.462;2022-07-23T04:26:49;13.07;;;4.68;;
35636;SDS011;21758;43.542;1.462;2022-07-23T04:29:15;15.32;;;4.00;;
35636;SDS011;21758;43.542;1.462;2022-07-23T04:31:41;12.65;;;4.05;;
35636;SDS011;21758;43.542;1.462;2022-07-23T04:34:06;9.38;;;3.72;;
35636;SDS011;21758;43.542;1.462;2022-07-23T04:36:32;12.23;;;4.30;;
35636;SDS011;21758;43.542;1.462;2022-07-23T04:38:58;10.00;;;3.90;;
35636;SDS011;21758;43.542;1.462;2022-07-23T04:41:23;9.80;;;3.72;;
35636;SDS011;21758;43.542;1.462;2022-07-23T04:43:49;16.25;;;3.88;;
35636;SDS011;21758;43.542;1.462;2022-07-23T04:46:14;11.45;;;3.78;;
35636;SDS011;21758;43.542;1.462;2022-07-23T04:48:40;8.63;;;3.88;;
35636;SDS011;21758;43.542;1.462;2022-07-23T04:51:07;13.35;;;4.22;;
35636;SDS011;21758;43.542;1.462;2022-07-23T04:53:33;12.45;;;3.42;;
35636;SDS011;21758;43.542;1.462;2022-07-23T04:55:58;14.80;;;4.28;;
35636;SDS011;21758;43.542;1.462;2022-07-23T04:58:24;8.60;;;3.70;;
35636;SDS011;21758;43.542;1.462;2022-07-23T05:00:50;13.68;;;3.60;;
35636;SDS011;21758;43.542;1.462;2022-07-23T05:03:15;13.57;;;3.40;;
35636;SDS011;21758;43.542;1.462;2022-07-23T05:05:41;15.45;;;4.15;;
35636;SDS011;21758;43.542;1.462;2022-07-23T05:08:07;11.77;;;3.95;;
35636;SDS011;21758;43.542;1.462;2022-07-23T05:10:32;10.00;;;3.40;;
35636;SDS011;21758;43.542;1.462;2022-07-23T05:12:58;8.15;;;3.42;;
35636;SDS011;21758;43.542;1.462;2022-07-23T05:15:23;13.38;;;3.80;;
35636;SDS011;21758;43.542;1.462;2022-07-23T05:17:49;11.48;;;3.95;;
35636;SDS011;21758;43.542;1.462;2022-07-23T05:20:15;11.30;;;3.90;;
35636;SDS011;21758;43.542;1.462;2022-07-23T05:22:41;12.45;;;4.18;;
35636;SDS011;21758;43.542;1.462;2022-07-23T05:25:07;13.23;;;4.50;;
35636;SDS011;21758;43.542;1.462;2022-07-23T05:27:33;10.30;;;4.32;;
35636;SDS011;21758;43.542;1.462;2022-07-23T05:29:59;13.27;;;3.85;;
35636;SDS011;21758;43.542;1.462;2022-07-23T05:32:25;13.07;;;4.30;;
35636;SDS011;21758;43.542;1.462;2022-07-23T05:34:50;11.02;;;3.70;;
35636;SDS011;21758;43.542;1.462;2022-07-23T05:37:16;9.20;;;4.22;;
35636;SDS011;21758;43.542;1.462;2022-07-23T05:39:42;12.50;;;3.97;;
35636;SDS011;21758;43.542;1.462;2022-07-23T05:42:07;12.70;;;3.78;;
35636;SDS011;21758;43.542;1.462;2022-07-23T05:44:33;10.52;;;3.88;;
35636;SDS011;21758;43.542;1.462;2022-07-23T05:46:59;9.98;;;3.28;;
35636;SDS011;21758;43.542;1.462;2022-07-23T05:49:25;11.40;;;3.53;;
35636;SDS011;21758;43.542;1.462;2022-07-23T05:51:51;10.57;;;3.40;;
35636;SDS011;21758;43.542;1.462;2022-07-23T05:54:16;15.02;;;4.25;;
35636;SDS011;21758;43.542;1.462;2022-07-23T05:56:42;8.60;;;3.55;;
35636;SDS011;21758;43.542;1.462;2022-07-23T05:59:08;12.65;;;4.35;;
35636;SDS011;21758;43.542;1.462;2022-07-23T06:01:34;10.75;;;3.53;;
35636;SDS011;21758;43.542;1.462;2022-07-23T06:03:59;14.80;;;4.03;;
35636;SDS011;21758;43.542;1.462;2022-07-23T06:06:25;10.65;;;4.18;;
35636;SDS011;21758;43.542;1.462;2022-07-23T06:08:51;9.93;;;3.65;;
35636;SDS011;21758;43.542;1.462;2022-07-23T06:11:16;12.73;;;4.22;;
35636;SDS011;21758;43.542;1.462;2022-07-23T06:13:42;14.85;;;3.63;;
35636;SDS011;21758;43.542;1.462;2022-07-23T06:16:08;9.82;;;3.55;;
35636;SDS011;21758;43.542;1.462;2022-07-23T06:18:34;11.60;;;3.20;;
35636;SDS011;21758;43.542;1.462;2022-07-23T06:20:59;11.75;;;3.67;;
35636;SDS011;21758;43.542;1.462;2022-07-23T06:23:25;12.00;;;3.55;;
35636;SDS011;21758;43.542;1.462;2022-07-23T06:25:51;9.35;;;3.05;;
35636;SDS011;21758;43.542;1.462;2022-07-23T06:28:17;9.95;;;2.88;;
35636;SDS011;21758;43.542;1.462;2022-07-23T06:30:42;8.77;;;3.15;;
35636;SDS011;21758;43.542;1.462;2022-07-23T06:33:08;8.18;;;2.70;;
35636;SDS011;21758;43.542;1.462;2022-07-23T06:35:34;6.85;;;3.08;;
35636;SDS011;21758;43.542;1.462;2022-07-23T06:38:00;11.38;;;2.92;;
35636;SDS011;21758;43.542;1.462;2022-07-23T06:40:25;6.10;;;2.60;;
35636;SDS011;21758;43.542;1.462;2022-07-23T06:42:51;11.60;;;3.30;;
35636;SDS011;21758;43.542;1.462;2022-07-23T06:45:17;8.05;;;2.63;;
35636;SDS011;21758;43.542;1.462;2022-07-23T06:47:43;7.28;;;2.80;;
35636;SDS011;21758;43.542;1.462;2022-07-23T06:50:09;9.25;;;3.13;;
35636;SDS011;21758;43.542;1.462;2022-07-23T06:52:35;10.05;;;2.63;;
35636;SDS011;21758;43.542;1.462;2022-07-23T06:55:01;10.25;;;2.63;;
35636;SDS011;21758;43.542;1.462;2022-07-23T06:57:26;8.85;;;2.85;;
35636;SDS011;21758;43.542;1.462;2022-07-23T06:59:52;7.93;;;2.90;;
35636;SDS011;21758;43.542;1.462;2022-07-23T07:02:18;6.10;;;2.95;;
35636;SDS011;21758;43.542;1.462;2022-07-23T07:04:44;8.73;;;2.55;;
35636;SDS011;21758;43.542;1.462;2022-07-23T07:07:10;8.27;;;2.53;;
35636;SDS011;21758;43.542;1.462;2022-07-23T07:09:37;7.20;;;2.83;;
35636;SDS011;21758;43.542;1.462;2022-07-23T07:12:02;11.70;;;2.70;;
35636;SDS011;21758;43.542;1.462;2022-07-23T07:14:29;10.00;;;2.58;;
35636;SDS011;21758;43.542;1.462;2022-07-23T07:16:54;8.90;;;3.45;;
35636;SDS011;21758;43.542;1.462;2022-07-23T07:19:20;8.38;;;2.75;;
35636;SDS011;21758;43.542;1.462;2022-07-23T07:21:46;9.82;;;2.47;;
35636;SDS011;21758;43.542;1.462;2022-07-23T07:24:11;11.45;;;3.15;;
35636;SDS011;21758;43.542;1.462;2022-07-23T07:26:37;11.75;;;2.78;;
35636;SDS011;21758;43.542;1.462;2022-07-23T07:29:04;10.35;;;3.20;;
35636;SDS011;21758;43.542;1.462;2022-07-23T07:31:30;11.32;;;2.95;;
35636;SDS011;21758;43.542;1.462;2022-07-23T07:33:55;12.77;;;2.88;;
35636;SDS011;21758;43.542;1.462;2022-07-23T07:36:22;12.93;;;2.80;;
35636;SDS011;21758;43.542;1.462;2022-07-23T07:38:47;13.73;;;2.83;;
35636;SDS011;21758;43.542;1.462;2022-07-23T07:41:13;5.18;;;2.47;;
35636;SDS011;21758;43.542;1.462;2022-07-23T07:43:40;8.70;;;2.50;;
35636;SDS011;21758;43.542;1.462;2022-07-23T07:46:06;10.80;;;2.95;;
35636;SDS011;21758;43.542;1.462;2022-07-23T10:31:00;13.88;;;2.00;;
35636;SDS011;21758;43.542;1.462;2022-07-23T10:36:30;5.90;;;1.58;;
35636;SDS011;21758;43.542;1.462;2022-07-23T10:41:37;5.75;;;1.48;;
35636;SDS011;21758;43.542;1.462;2022-07-23T10:46:33;6.50;;;1.85;;
35636;SDS011;21758;43.542;1.462;2022-07-23T10:49:20;4.68;;;1.20;;
35636;SDS011;21758;43.542;1.462;2022-07-23T10:57:24;2.75;;;1.30;;
35636;SDS011;21758;43.542;1.462;2022-07-23T11:02:27;8.50;;;1.67;;
35636;SDS011;21758;43.542;1.462;2022-07-23T11:04:58;9.98;;;1.55;;
35636;SDS011;21758;43.542;1.462;2022-07-23T11:07:25;2.78;;;1.45;;
35636;SDS011;21758;43.542;1.462;2022-07-23T11:09:51;3.83;;;1.30;;
35636;SDS011;21758;43.542;1.462;2022-07-23T11:17:37;5.05;;;1.38;;
35636;SDS011;21758;43.542;1.462;2022-07-23T11:25:14;3.58;;;1.23;;
35636;SDS011;21758;43.542;1.462;2022-07-23T11:27:55;2.35;;;1.00;;
35636;SDS011;21758;43.542;1.462;2022-07-23T11:35:34;3.25;;;1.30;;
35636;SDS011;21758;43.542;1.462;2022-07-23T11:38:04;3.10;;;1.40;;
35636;SDS011;21758;43.542;1.462;2022-07-23T11:40:38;8.63;;;1.40;;
35636;SDS011;21758;43.542;1.462;2022-07-23T11:43:08;3.35;;;1.10;;
35636;SDS011;21758;43.542;1.462;2022-07-23T11:45:36;3.30;;;1.20;;
35636;SDS011;21758;43.542;1.462;2022-07-23T11:48:03;5.07;;;1.30;;
35636;SDS011;21758;43.542;1.462;2022-07-23T11:50:30;2.75;;;1.00;;
35636;SDS011;21758;43.542;1.462;2022-07-23T11:52:56;3.08;;;1.25;;
35636;SDS011;21758;43.542;1.462;2022-07-23T11:55:22;4.97;;;1.20;;
35636;SDS011;21758;43.542;1.462;2022-07-23T11:57:48;4.63;;;1.30;;
35636;SDS011;21758;43.542;1.462;2022-07-23T12:00:17;7.93;;;1.38;;
35636;SDS011;21758;43.542;1.462;2022-07-23T12:02:45;1.95;;;1.00;;
35636;SDS011;21758;43.542;1.462;2022-07-23T12:05:17;4.88;;;1.70;;
35636;SDS011;21758;43.542;1.462;2022-07-23T12:07:45;5.30;;;1.33;;
35636;SDS011;21758;43.542;1.462;2022-07-23T12:10:26;2.95;;;1.23;;
35636;SDS011;21758;43.542;1.462;2022-07-23T12:15:21;6.30;;;1.45;;
35636;SDS011;21758;43.542;1.462;2022-07-23T12:17:56;6.55;;;1.40;;
35636;SDS011;21758;43.542;1.462;2022-07-23T12:20:24;5.40;;;1.40;;
35636;SDS011;21758;43.542;1.462;2022-07-23T12:22:52;4.90;;;1.33;;
35636;SDS011;21758;43.542;1.462;2022-07-23T12:25:25;5.68;;;1.63;;
35636;SDS011;21758;43.542;1.462;2022-07-23T12:27:59;4.93;;;1.75;;
35636;SDS011;21758;43.542;1.462;2022-07-23T12:30:34;4.38;;;1.55;;
35636;SDS011;21758;43.542;1.462;2022-07-23T12:33:00;4.78;;;1.38;;
35636;SDS011;21758;43.542;1.462;2022-07-23T12:35:31;6.32;;;1.60;;
35636;SDS011;21758;43.542;1.462;2022-07-23T12:38:00;3.60;;;1.73;;
35636;SDS011;21758;43.542;1.462;2022-07-23T12:40:40;4.80;;;1.70;;
35636;SDS011;21758;43.542;1.462;2022-07-23T12:43:07;8.30;;;1.98;;
35636;SDS011;21758;43.542;1.462;2022-07-23T12:46:09;5.20;;;1.42;;
35636;SDS011;21758;43.542;1.462;2022-07-23T12:51:17;5.03;;;1.55;;
35636;SDS011;21758;43.542;1.462;2022-07-23T12:53:55;4.95;;;1.58;;
35636;SDS011;21758;43.542;1.462;2022-07-23T12:56:29;6.68;;;2.33;;
35636;SDS011;21758;43.542;1.462;2022-07-23T12:58:57;5.53;;;1.85;;
35636;SDS011;21758;43.542;1.462;2022-07-23T13:01:31;3.95;;;1.70;;
35636;SDS011;21758;43.542;1.462;2022-07-23T13:04:41;3.63;;;1.85;;
35636;SDS011;21758;43.542;1.462;2022-07-23T13:09:19;5.88;;;1.70;;
35636;SDS011;21758;43.542;1.462;2022-07-23T13:11:47;4.90;;;1.90;;
35636;SDS011;21758;43.542;1.462;2022-07-23T13:14:14;6.20;;;1.98;;
35636;SDS011;21758;43.542;1.462;2022-07-23T13:16:41;5.55;;;1.90;;
35636;SDS011;21758;43.542;1.462;2022-07-23T13:19:07;4.30;;;1.90;;
35636;SDS011;21758;43.542;1.462;2022-07-23T13:21:33;7.75;;;1.98;;
35636;SDS011;21758;43.542;1.462;2022-07-23T13:23:59;5.57;;;1.83;;
35636;SDS011;21758;43.542;1.462;2022-07-23T13:26:25;4.22;;;2.00;;
35636;SDS011;21758;43.542;1.462;2022-07-23T13:28:51;5.55;;;1.88;;
35636;SDS011;21758;43.542;1.462;2022-07-23T13:31:19;5.65;;;1.60;;
35636;SDS011;21758;43.542;1.462;2022-07-23T13:33:46;5.15;;;2.00;;
35636;SDS011;21758;43.542;1.462;2022-07-23T13:36:13;6.03;;;1.90;;
35636;SDS011;21758;43.542;1.462;2022-07-23T13:38:39;3.65;;;1.85;;
35636;SDS011;21758;43.542;1.462;2022-07-23T13:41:05;5.47;;;1.65;;
35636;SDS011;21758;43.542;1.462;2022-07-23T13:43:31;6.82;;;1.90;;
35636;SDS011;21758;43.542;1.462;2022-07-23T13:45:57;3.25;;;1.75;;
35636;SDS011;21758;43.542;1.462;2022-07-23T13:48:23;6.50;;;1.88;;
35636;SDS011;21758;43.542;1.462;2022-07-23T13:50:49;8.95;;;2.33;;
35636;SDS011;21758;43.542;1.462;2022-07-23T13:53:16;5.20;;;1.80;;
35636;SDS011;21758;43.542;1.462;2022-07-23T13:55:46;6.70;;;1.87;;
35636;SDS011;21758;43.542;1.462;2022-07-23T13:58:13;4.57;;;2.25;;
35636;SDS011;21758;43.542;1.462;2022-07-23T14:00:40;4.35;;;1.90;;
35636;SDS011;21758;43.542;1.462;2022-07-23T14:03:08;6.00;;;1.85;;
35636;SDS011;21758;43.542;1.462;2022-07-23T14:05:34;5.63;;;1.90;;
35636;SDS011;21758;43.542;1.462;2022-07-23T14:08:00;7.28;;;2.40;;
35636;SDS011;21758;43.542;1.462;2022-07-23T14:10:26;5.28;;;2.00;;
35636;SDS011;21758;43.542;1.462;2022-07-23T14:12:52;6.80;;;2.15;;
35636;SDS011;21758;43.542;1.462;2022-07-23T14:15:21;6.03;;;2.28;;
35636;SDS011;21758;43.542;1.462;2022-07-23T14:17:47;4.93;;;2.15;;
35636;SDS011;21758;43.542;1.462;2022-07-23T14:20:13;5.07;;;2.00;;
35636;SDS011;21758;43.542;1.462;2022-07-23T14:22:39;6.20;;;2.05;;
35636;SDS011;21758;43.542;1.462;2022-07-23T14:25:05;5.65;;;2.35;;
35636;SDS011;21758;43.542;1.462;2022-07-23T14:27:32;11.38;;;2.60;;
35636;SDS011;21758;43.542;1.462;2022-07-23T14:29:58;7.57;;;2.10;;
35636;SDS011;21758;43.542;1.462;2022-07-23T14:32:24;10.10;;;2.60;;
35636;SDS011;21758;43.542;1.462;2022-07-23T14:34:51;7.85;;;2.30;;
35636;SDS011;21758;43.542;1.462;2022-07-23T14:37:16;6.72;;;2.10;;
35636;SDS011;21758;43.542;1.462;2022-07-23T14:39:43;8.05;;;2.42;;
35636;SDS011;21758;43.542;1.462;2022-07-23T14:42:09;5.63;;;2.33;;
35636;SDS011;21758;43.542;1.462;2022-07-23T14:44:35;8.45;;;2.40;;
35636;SDS011;21758;43.542;1.462;2022-07-23T14:47:02;6.40;;;2.20;;
35636;SDS011;21758;43.542;1.462;2022-07-23T14:49:29;5.30;;;2.53;;
35636;SDS011;21758;43.542;1.462;2022-07-23T14:51:56;8.07;;;2.30;;
35636;SDS011;21758;43.542;1.462;2022-07-23T14:54:22;4.38;;;2.10;;
35636;SDS011;21758;43.542;1.462;2022-07-23T14:56:50;6.80;;;2.42;;
35636;SDS011;21758;43.542;1.462;2022-07-23T14:59:16;6.32;;;1.92;;
35636;SDS011;21758;43.542;1.462;2022-07-23T15:01:42;6.82;;;2.13;;
35636;SDS011;21758;43.542;1.462;2022-07-23T15:04:08;5.82;;;2.20;;
35636;SDS011;21758;43.542;1.462;2022-07-23T15:06:33;8.25;;;2.25;;
35636;SDS011;21758;43.542;1.462;2022-07-23T15:08:59;9.18;;;2.45;;
35636;SDS011;21758;43.542;1.462;2022-07-23T15:11:26;5.57;;;2.40;;
35636;SDS011;21758;43.542;1.462;2022-07-23T15:13:58;6.90;;;2.45;;
35636;SDS011;21758;43.542;1.462;2022-07-23T15:16:23;7.07;;;2.33;;
35636;SDS011;21758;43.542;1.462;2022-07-23T15:18:49;4.93;;;2.30;;
35636;SDS011;21758;43.542;1.462;2022-07-23T15:21:15;4.53;;;2.05;;
35636;SDS011;21758;43.542;1.462;2022-07-23T15:23:40;8.25;;;2.22;;
35636;SDS011;21758;43.542;1.462;2022-07-23T15:26:06;5.32;;;2.05;;
35636;SDS011;21758;43.542;1.462;2022-07-23T15:28:33;7.68;;;2.55;;
35636;SDS011;21758;43.542;1.462;2022-07-23T15:31:00;5.10;;;2.20;;
35636;SDS011;21758;43.542;1.462;2022-07-23T15:33:26;9.02;;;2.60;;
35636;SDS011;21758;43.542;1.462;2022-07-23T15:35:52;5.80;;;2.40;;
35636;SDS011;21758;43.542;1.462;2022-07-23T15:38:20;5.45;;;2.75;;
35636;SDS011;21758;43.542;1.462;2022-07-23T15:40:46;12.05;;;2.45;;
35636;SDS011;21758;43.542;1.462;2022-07-23T15:43:12;5.75;;;2.20;;
35636;SDS011;21758;43.542;1.462;2022-07-23T15:45:38;9.00;;;2.90;;
35636;SDS011;21758;43.542;1.462;2022-07-23T15:48:04;8.85;;;2.20;;
35636;SDS011;21758;43.542;1.462;2022-07-23T15:50:30;7.47;;;2.70;;
35636;SDS011;21758;43.542;1.462;2022-07-23T15:52:56;5.63;;;2.30;;
35636;SDS011;21758;43.542;1.462;2022-07-23T15:55:22;5.47;;;2.55;;
35636;SDS011;21758;43.542;1.462;2022-07-23T15:57:48;6.68;;;2.50;;
35636;SDS011;21758;43.542;1.462;2022-07-23T16:00:14;6.47;;;2.78;;
35636;SDS011;21758;43.542;1.462;2022-07-23T16:02:40;8.40;;;2.40;;
35636;SDS011;21758;43.542;1.462;2022-07-23T16:05:06;6.90;;;2.83;;
35636;SDS011;21758;43.542;1.462;2022-07-23T16:07:33;5.85;;;2.55;;
35636;SDS011;21758;43.542;1.462;2022-07-23T16:10:02;5.72;;;2.47;;
35636;SDS011;21758;43.542;1.462;2022-07-23T16:12:29;9.00;;;2.60;;
35636;SDS011;21758;43.542;1.462;2022-07-23T16:14:55;7.65;;;2.70;;
35636;SDS011;21758;43.542;1.462;2022-07-23T16:17:20;6.72;;;2.50;;
35636;SDS011;21758;43.542;1.462;2022-07-23T16:19:46;10.18;;;2.70;;
35636;SDS011;21758;43.542;1.462;2022-07-23T16:22:12;8.35;;;2.47;;
35636;SDS011;21758;43.542;1.462;2022-07-23T16:24:40;8.68;;;2.67;;
35636;SDS011;21758;43.542;1.462;2022-07-23T16:27:07;9.02;;;2.63;;
35636;SDS011;21758;43.542;1.462;2022-07-23T16:29:32;8.20;;;2.75;;
35636;SDS011;21758;43.542;1.462;2022-07-23T16:31:58;5.30;;;2.40;;
35636;SDS011;21758;43.542;1.462;2022-07-23T16:34:24;5.88;;;2.20;;
35636;SDS011;21758;43.542;1.462;2022-07-23T16:36:49;8.63;;;2.67;;
35636;SDS011;21758;43.542;1.462;2022-07-23T16:39:15;7.72;;;2.50;;
35636;SDS011;21758;43.542;1.462;2022-07-23T16:41:41;6.78;;;2.45;;
35636;SDS011;21758;43.542;1.462;2022-07-23T16:44:07;5.43;;;2.25;;
35636;SDS011;21758;43.542;1.462;2022-07-23T16:46:32;6.43;;;2.60;;
35636;SDS011;21758;43.542;1.462;2022-07-23T16:48:58;6.80;;;2.80;;
35636;SDS011;21758;43.542;1.462;2022-07-23T16:51:24;12.85;;;2.72;;
35636;SDS011;21758;43.542;1.462;2022-07-23T16:53:50;5.10;;;2.60;;
35636;SDS011;21758;43.542;1.462;2022-07-23T16:56:15;10.75;;;2.83;;
35636;SDS011;21758;43.542;1.462;2022-07-23T16:58:41;6.65;;;2.50;;
35636;SDS011;21758;43.542;1.462;2022-07-23T17:01:08;12.00;;;2.25;;
35636;SDS011;21758;43.542;1.462;2022-07-23T17:03:33;5.05;;;2.50;;
35636;SDS011;21758;43.542;1.462;2022-07-23T17:05:59;13.07;;;2.60;;
35636;SDS011;21758;43.542;1.462;2022-07-23T17:08:25;4.18;;;2.30;;
35636;SDS011;21758;43.542;1.462;2022-07-23T17:10:51;6.80;;;2.97;;
35636;SDS011;21758;43.542;1.462;2022-07-23T17:13:17;9.55;;;2.80;;
35636;SDS011;21758;43.542;1.462;2022-07-23T17:15:43;10.43;;;2.90;;
35636;SDS011;21758;43.542;1.462;2022-07-23T17:18:08;5.65;;;2.35;;
35636;SDS011;21758;43.542;1.462;2022-07-23T17:20:37;6.35;;;2.70;;
35636;SDS011;21758;43.542;1.462;2022-07-23T17:23:04;7.47;;;2.50;;
35636;SDS011;21758;43.542;1.462;2022-07-23T17:25:30;15.82;;;2.83;;
35636;SDS011;21758;43.542;1.462;2022-07-23T17:27:56;7.72;;;2.90;;
35636;SDS011;21758;43.542;1.462;2022-07-23T17:30:21;5.50;;;2.97;;
35636;SDS011;21758;43.542;1.462;2022-07-23T17:32:47;16.63;;;2.92;;
35636;SDS011;21758;43.542;1.462;2022-07-23T17:35:13;6.57;;;2.88;;
35636;SDS011;21758;43.542;1.462;2022-07-23T17:37:38;5.60;;;2.50;;
35636;SDS011;21758;43.542;1.462;2022-07-23T17:40:05;10.55;;;3.33;;
35636;SDS011;21758;43.542;1.462;2022-07-23T17:42:32;6.95;;;2.95;;
35636;SDS011;21758;43.542;1.462;2022-07-23T17:44:58;5.45;;;2.92;;
35636;SDS011;21758;43.542;1.462;2022-07-23T17:47:23;5.65;;;2.80;;
35636;SDS011;21758;43.542;1.462;2022-07-23T17:49:49;6.63;;;2.97;;
35636;SDS011;21758;43.542;1.462;2022-07-23T17:52:15;4.35;;;1.98;;
35636;SDS011;21758;43.542;1.462;2022-07-23T17:54:40;6.22;;;2.58;;
35636;SDS011;21758;43.542;1.462;2022-07-23T17:57:06;5.32;;;2.63;;
35636;SDS011;21758;43.542;1.462;2022-07-23T17:59:32;8.52;;;2.78;;
35636;SDS011;21758;43.542;1.462;2022-07-23T18:01:58;7.25;;;2.53;;